B. John Yeager — WDB8150 — position and weather

sailwx.info

Track history (hours):
 
Tides and Currents Weather Stations Pressure Air Temp Water Temp Dewpoint Dewpoint Depression Visibility Wind Speed Wind Dir Waves Ship Positions

B. John Yeager

Owner: INGRAM BARGE COMPANY, Nashville, TN. More information available from US FCC via Universal Licensing System and Coast Guard Vessel Documentation Center.

Last reported at 2015-May-09 00:24 UTC. Time now 2015-May-28 10:10 UTC.
Position N 30°45' W 091°22'.
Warning: this ship's position is 19 days out of date.

Length 54 m; draft 3.7 m.

Type: Tow > 200 m length. MMSI: 366953860.

Date/timePositionNaut miles runAvg speedWind from/ knotsBaromVisibWave heightAir tempDewpointWater temp
2015-May-09 00:24N 30°45' W 091°22'3 3.9
2015-May-08 23:33N 30°42' W 091°21'4 4.2
2015-May-08 22:32N 30°39' W 091°18'4 4.3
2015-May-08 21:33N 30°35' W 091°19'4 3.8
2015-May-08 20:33N 30°33' W 091°15'3 3.1
2015-May-08 19:33N 30°31' W 091°17'3 2.9
2015-May-08 18:33N 30°31' W 091°13'2 1.8
2015-May-08 17:33N 30°30' W 091°12'1 0.6
2015-May-08 16:33N 30°29' W 091°12'0 0.0
2015-May-08 15:34N 30°29' W 091°12'0 0.0
2015-May-08 14:33N 30°29' W 091°12'0 0.0
2015-May-08 13:34N 30°29' W 091°12'0 0.0
2015-May-08 12:33N 30°29' W 091°12'0 0.0
2015-May-08 11:33N 30°29' W 091°12'0 0.0
2015-May-08 10:34N 30°29' W 091°12'0 0.0
2015-May-08 09:33N 30°29' W 091°12'0 0.0
2015-May-08 08:33N 30°29' W 091°12'0 0.0
2015-May-08 07:33N 30°29' W 091°12'0 0.0
2015-May-08 06:33N 30°29' W 091°12'0 0.1
2015-May-08 05:33N 30°29' W 091°12'3 3.2
2015-May-08 04:33N 30°26' W 091°12'4 4.4
2015-May-08 03:33N 30°22' W 091°14'0 0.0
2015-May-08 02:34N 30°22' W 091°14'0 0.0
2015-May-08 01:33N 30°22' W 091°14'1 0.9
2015-May-08 00:33N 30°21' W 091°14'3 2.8
2015-May-07 23:33N 30°21' W 091°11'3 2.8
2015-May-07 22:34N 30°19' W 091°09'3 3.4
2015-May-07 21:33N 30°19' W 091°13'6 2.0
2015-May-07 18:23N 30°13' W 091°09'8 0.2
2015-May-05 19:31N 30°21' W 091°12'11 5.4
2015-May-05 17:33N 30°31' W 091°13'2 1.6
2015-May-05 16:33N 30°32' W 091°14'5 4.9
2015-May-05 15:33N 30°35' W 091°19'6 6.1
2015-May-05 14:33N 30°41' W 091°21'  
Track history (hours):
 
Tides and Currents Weather Stations Pressure Air Temp Water Temp Dewpoint Dewpoint Depression Visibility Wind Speed Wind Dir Waves Ship Positions

B. John Yeager

Owner: INGRAM BARGE COMPANY, Nashville, TN. More information available from US FCC via Universal Licensing System and Coast Guard Vessel Documentation Center.

Last reported at 2015-May-09 00:24 UTC. Time now 2015-May-28 10:10 UTC.
Position N 30°45' W 091°22'.
Warning: this ship's position is 19 days out of date.

Length 54 m; draft 3.7 m.

Type: Tow > 200 m length. MMSI: 366953860.

Date/timePositionNaut miles runAvg speedWind from/ knotsBaromVisibWave heightAir tempDewpointWater temp
2015-May-09 00:24N 30°45' W 091°22'3 3.9
2015-May-08 23:33N 30°42' W 091°21'4 4.2
2015-May-08 22:32N 30°39' W 091°18'4 4.3
2015-May-08 21:33N 30°35' W 091°19'4 3.8
2015-May-08 20:33N 30°33' W 091°15'3 3.1
2015-May-08 19:33N 30°31' W 091°17'3 2.9
2015-May-08 18:33N 30°31' W 091°13'2 1.8
2015-May-08 17:33N 30°30' W 091°12'1 0.6
2015-May-08 16:33N 30°29' W 091°12'0 0.0
2015-May-08 15:34N 30°29' W 091°12'0 0.0
2015-May-08 14:33N 30°29' W 091°12'0 0.0
2015-May-08 13:34N 30°29' W 091°12'0 0.0
2015-May-08 12:33N 30°29' W 091°12'0 0.0
2015-May-08 11:33N 30°29' W 091°12'0 0.0
2015-May-08 10:34N 30°29' W 091°12'0 0.0
2015-May-08 09:33N 30°29' W 091°12'0 0.0
2015-May-08 08:33N 30°29' W 091°12'0 0.0
2015-May-08 07:33N 30°29' W 091°12'0 0.0
2015-May-08 06:33N 30°29' W 091°12'0 0.1
2015-May-08 05:33N 30°29' W 091°12'3 3.2
2015-May-08 04:33N 30°26' W 091°12'4 4.4
2015-May-08 03:33N 30°22' W 091°14'0 0.0
2015-May-08 02:34N 30°22' W 091°14'0 0.0
2015-May-08 01:33N 30°22' W 091°14'1 0.9
2015-May-08 00:33N 30°21' W 091°14'3 2.8
2015-May-07 23:33N 30°21' W 091°11'3 2.8
2015-May-07 22:34N 30°19' W 091°09'3 3.4
2015-May-07 21:33N 30°19' W 091°13'6 2.0
2015-May-07 18:23N 30°13' W 091°09'8 0.2
2015-May-05 19:31N 30°21' W 091°12'11 5.4
2015-May-05 17:33N 30°31' W 091°13'2 1.6
2015-May-05 16:33N 30°32' W 091°14'5 4.9
2015-May-05 15:33N 30°35' W 091°19'6 6.1
2015-May-05 14:33N 30°41' W 091°21'  

Dump ship's entire track history